Time;durP1;ratioP1;P1;durP2;ratioP2;P2;SDS_P1;SDS_P2;PMS_P1;PMS_P2;Temp;Humidity;BMP_temperature;BMP_pressure;BME280_temperature;BME280_humidity;BME280_pressure;Samples;Min_cycle;Max_cycle;Signal;HPM_P1;HPM_P2
2023/08/25 00:01:41;;;;;;;3.75;3.45;;;19.70;99.90;;;;;;4969996;28;20670;-74
2023/08/25 00:04:08;;;;;;;5.07;4.68;;;19.70;99.90;;;;;;4984665;28;20041;-74
2023/08/25 00:06:34;;;;;;;6.22;5.60;;;19.70;99.90;;;;;;4961463;28;20513;-73
2023/08/25 00:09:00;;;;;;;5.78;5.20;;;19.70;99.90;;;;;;4983884;28;20022;-73
2023/08/25 00:11:26;;;;;;;5.28;4.43;;;19.70;99.90;;;;;;4993673;28;20029;-73
2023/08/25 00:13:53;;;;;;;4.70;4.28;;;19.60;99.90;;;;;;4972596;28;20060;-72
2023/08/25 00:16:19;;;;;;;4.07;3.70;;;19.60;99.90;;;;;;4987453;28;20034;-73
2023/08/25 00:18:46;;;;;;;4.53;4.13;;;19.60;99.90;;;;;;4955457;28;20057;-73
2023/08/25 00:21:12;;;;;;;4.55;4.15;;;19.50;99.90;;;;;;4972100;28;20050;-74
2023/08/25 00:23:38;;;;;;;4.15;3.83;;;19.50;99.90;;;;;;4974281;28;20049;-72
2023/08/25 00:26:05;;;;;;;5.43;4.18;;;19.50;99.90;;;;;;4976043;28;20046;-73
2023/08/25 00:28:31;;;;;;;5.45;4.95;;;19.50;99.90;;;;;;4984544;28;20038;-72
2023/08/25 00:30:58;;;;;;;6.30;5.70;;;19.50;99.90;;;;;;4980408;28;20026;-72
2023/08/25 00:33:24;;;;;;;6.80;6.20;;;19.50;99.90;;;;;;4987706;28;20041;-72
2023/08/25 00:35:51;;;;;;;6.43;5.82;;;19.50;99.90;;;;;;4968244;28;21241;-74
2023/08/25 00:38:17;;;;;;;6.05;5.53;;;19.50;99.90;;;;;;4975221;28;20057;-74
2023/08/25 00:40:44;;;;;;;5.90;5.35;;;19.50;99.90;;;;;;4986605;28;20022;-72
2023/08/25 00:43:10;;;;;;;7.55;6.88;;;19.50;99.90;;;;;;4972367;28;20030;-72
2023/08/25 00:45:41;;;;;;;6.38;5.78;;;19.50;99.90;;;;;;4957862;28;20116;-73
2023/08/25 00:48:10;;;;;;;5.43;4.93;;;19.40;99.90;;;;;;4983200;28;20226;-73
2023/08/25 00:50:37;;;;;;;5.93;5.43;;;19.40;99.90;;;;;;4996523;28;20034;-74
2023/08/25 00:53:05;;;;;;;5.32;4.88;;;19.40;99.90;;;;;;4970882;28;20034;-73
2023/08/25 00:55:32;;;;;;;6.63;5.60;;;19.40;99.90;;;;;;4968909;28;20234;-73
2023/08/25 00:57:59;;;;;;;5.85;5.28;;;19.40;99.90;;;;;;4969381;28;20042;-73
2023/08/25 01:00:26;;;;;;;7.03;5.30;;;19.30;99.90;;;;;;4972158;28;20038;-72
2023/08/25 01:02:54;;;;;;;7.55;6.63;;;19.40;99.90;;;;;;4957543;28;20697;-73
2023/08/25 01:05:21;;;;;;;7.00;6.30;;;19.30;99.90;;;;;;4970104;28;20034;-72
2023/08/25 01:07:48;;;;;;;5.63;5.22;;;19.30;99.90;;;;;;4997704;28;20033;-73
2023/08/25 01:10:16;;;;;;;6.05;5.50;;;19.30;99.90;;;;;;4966909;28;20242;-73
2023/08/25 01:12:58;;;;;;;6.20;5.60;;;19.20;99.90;;;;;;4980223;28;20497;-72
2023/08/25 01:15:32;;;;;;;5.85;5.05;;;19.30;99.90;;;;;;4969183;28;20049;-72
2023/08/25 01:18:07;;;;;;;5.95;5.35;;;19.20;99.90;;;;;;4954709;28;20133;-72
2023/08/25 01:20:36;;;;;;;6.60;5.53;;;19.20;99.90;;;;;;4951640;28;20046;-73
2023/08/25 01:23:05;;;;;;;6.47;5.88;;;19.20;99.90;;;;;;4955352;28;20053;-74
2023/08/25 01:25:32;;;;;;;6.35;5.75;;;19.20;99.90;;;;;;4953731;28;20057;-73
2023/08/25 01:28:01;;;;;;;7.95;6.85;;;19.10;99.90;;;;;;4977227;28;20381;-73
2023/08/25 01:30:32;;;;;;;6.50;5.55;;;19.10;99.90;;;;;;4962709;28;20030;-72
2023/08/25 01:33:00;;;;;;;6.57;5.93;;;19.20;99.90;;;;;;4982711;28;21793;-73
2023/08/25 01:36:06;;;;;;;7.53;6.85;;;19.20;99.90;;;;;;4952459;28;20037;-73
2023/08/25 01:38:52;;;;;;;5.28;4.63;;;19.20;99.90;;;;;;4953971;28;20029;-72
2023/08/25 01:41:25;;;;;;;5.55;5.05;;;19.10;99.90;;;;;;4984694;28;20046;-73
2023/08/25 01:43:53;;;;;;;7.43;6.65;;;19.10;99.90;;;;;;4984429;28;20041;-72
2023/08/25 01:46:20;;;;;;;7.10;6.40;;;19.10;99.90;;;;;;4967562;28;20459;-73
2023/08/25 01:48:50;;;;;;;9.13;8.23;;;19.20;99.90;;;;;;4966218;28;20045;-72
2023/08/25 01:51:17;;;;;;;8.70;7.85;;;19.20;99.90;;;;;;4979249;28;20396;-72
2023/08/25 01:53:44;;;;;;;8.10;7.40;;;19.30;99.90;;;;;;4992836;28;20045;-72
2023/08/25 01:56:13;;;;;;;7.40;6.78;;;19.40;99.90;;;;;;4968052;28;20030;-73
2023/08/25 01:58:40;;;;;;;8.48;7.75;;;19.40;99.90;;;;;;4985795;28;20034;-73
2023/08/25 02:01:06;;;;;;;8.38;7.65;;;19.50;99.90;;;;;;4938969;28;20121;-73
2023/08/25 02:03:32;;;;;;;7.80;6.88;;;19.60;99.90;;;;;;4954451;28;20050;-73
2023/08/25 02:05:59;;;;;;;9.18;8.30;;;19.60;99.90;;;;;;4967899;28;20037;-73
2023/08/25 02:08:25;;;;;;;7.93;7.22;;;19.60;99.90;;;;;;4990085;28;20038;-72
2023/08/25 02:10:52;;;;;;;9.65;8.85;;;19.70;99.90;;;;;;4969228;28;20038;-72
2023/08/25 02:13:19;;;;;;;10.52;9.52;;;19.70;99.90;;;;;;4978779;28;20717;-73
2023/08/25 02:15:48;;;;;;;11.70;10.60;;;19.80;99.90;;;;;;4948001;28;20042;-73
2023/08/25 02:18:14;;;;;;;9.60;8.70;;;19.80;99.90;;;;;;4971671;28;20045;-73
2023/08/25 02:20:41;;;;;;;11.10;9.95;;;19.80;99.90;;;;;;4949055;28;20038;-72
2023/08/25 02:23:08;;;;;;;9.80;8.95;;;19.90;99.90;;;;;;4970130;28;20481;-72
2023/08/25 02:25:35;;;;;;;8.48;7.25;;;19.90;99.90;;;;;;4954017;28;20046;-72
2023/08/25 02:28:01;;;;;;;10.10;9.20;;;19.90;99.90;;;;;;4955060;28;22027;-72
2023/08/25 02:30:28;;;;;;;10.85;9.88;;;19.90;99.90;;;;;;4996093;28;20034;-72
2023/08/25 02:32:55;;;;;;;10.13;9.25;;;20.00;99.90;;;;;;4962895;28;20068;-72
2023/08/25 02:35:21;;;;;;;9.32;8.52;;;20.00;99.90;;;;;;4983225;28;20041;-72
2023/08/25 02:38:10;;;;;;;10.68;9.75;;;20.00;99.90;;;;;;4951114;28;21470;-73
2023/08/25 02:40:40;;;;;;;11.73;10.48;;;20.00;99.90;;;;;;4966633;28;20041;-72
2023/08/25 02:43:07;;;;;;;10.63;9.65;;;20.00;99.90;;;;;;4983758;28;20952;-73
2023/08/25 02:45:35;;;;;;;9.30;8.40;;;20.00;99.90;;;;;;4984392;28;20042;-73
2023/08/25 02:48:02;;;;;;;8.20;7.45;;;20.10;99.90;;;;;;4975632;28;20030;-72
2023/08/25 02:50:29;;;;;;;11.82;10.10;;;20.10;99.90;;;;;;4949016;28;20532;-73
2023/08/25 02:52:56;;;;;;;11.25;9.95;;;20.10;99.90;;;;;;4994951;28;20044;-73
2023/08/25 02:55:23;;;;;;;10.10;9.25;;;20.10;99.90;;;;;;4969619;28;20040;-74
2023/08/25 02:57:50;;;;;;;13.77;12.43;;;20.10;99.90;;;;;;4985222;28;20380;-72
2023/08/25 03:00:21;;;;;;;9.98;9.07;;;20.10;99.90;;;;;;4953970;28;20078;-73
2023/08/25 03:02:48;;;;;;;12.43;11.32;;;20.20;99.90;;;;;;4972444;28;20041;-72
2023/08/25 03:05:15;;;;;;;12.35;11.20;;;20.20;99.90;;;;;;4951727;28;20382;-72
2023/08/25 03:07:41;;;;;;;13.35;11.95;;;20.20;99.90;;;;;;4985792;28;20038;-72
2023/08/25 03:10:09;;;;;;;12.93;11.70;;;20.20;99.90;;;;;;4949349;28;20044;-72
2023/08/25 03:12:37;;;;;;;12.50;11.32;;;20.20;99.90;;;;;;4963884;28;20029;-73
2023/08/25 03:15:07;;;;;;;12.45;11.35;;;20.20;99.90;;;;;;4988963;28;20044;-73
2023/08/25 03:17:34;;;;;;;11.48;10.48;;;20.30;99.90;;;;;;4985577;28;20037;-73
2023/08/25 03:20:02;;;;;;;12.40;11.10;;;20.30;99.90;;;;;;4954292;28;20042;-73
2023/08/25 03:22:30;;;;;;;12.00;10.90;;;20.20;99.90;;;;;;4949629;28;20041;-73
2023/08/25 03:24:58;;;;;;;13.15;11.95;;;20.30;99.90;;;;;;4970026;28;21471;-74
2023/08/25 03:27:24;;;;;;;13.73;12.40;;;20.30;99.90;;;;;;4983758;28;20022;-73
2023/08/25 03:29:51;;;;;;;13.35;12.00;;;20.30;99.90;;;;;;4978432;28;20458;-73
2023/08/25 03:32:18;;;;;;;10.02;9.13;;;20.30;99.90;;;;;;4976595;28;20481;-72
2023/08/25 03:34:44;;;;;;;12.30;11.20;;;20.30;99.90;;;;;;4977468;28;20042;-72
2023/08/25 03:37:11;;;;;;;11.68;10.57;;;20.30;99.90;;;;;;4968830;28;20057;-73
2023/08/25 03:39:38;;;;;;;10.88;9.80;;;20.30;99.90;;;;;;4984279;28;20041;-72
2023/08/25 03:42:06;;;;;;;11.38;10.32;;;20.30;99.90;;;;;;4956435;28;20049;-72
2023/08/25 03:44:32;;;;;;;12.98;11.43;;;20.30;99.90;;;;;;4959197;28;20421;-73
2023/08/25 03:46:58;;;;;;;12.80;11.70;;;20.30;99.90;;;;;;4955683;28;20520;-73
2023/08/25 03:49:28;;;;;;;11.43;10.40;;;20.30;99.90;;;;;;4994530;28;20824;-73
2023/08/25 03:51:55;;;;;;;10.07;9.13;;;20.30;99.90;;;;;;4983074;28;20050;-73
2023/08/25 03:54:21;;;;;;;12.70;11.55;;;20.30;99.90;;;;;;4968821;28;20029;-73
2023/08/25 03:56:47;;;;;;;9.70;8.90;;;20.30;99.90;;;;;;4973288;28;20034;-72
2023/08/25 03:59:14;;;;;;;12.40;11.23;;;20.30;99.90;;;;;;4973448;28;20038;-73
2023/08/25 04:01:40;;;;;;;12.68;11.57;;;20.30;99.90;;;;;;4978428;28;20459;-72
2023/08/25 04:04:07;;;;;;;12.88;11.77;;;20.30;99.90;;;;;;4972035;28;20038;-72
2023/08/25 04:06:33;;;;;;;13.75;11.98;;;20.30;99.90;;;;;;4989154;28;20034;-73
2023/08/25 04:08:59;;;;;;;10.13;9.27;;;20.30;99.90;;;;;;4990446;28;20940;-72
2023/08/25 04:11:26;;;;;;;12.05;10.95;;;20.30;99.90;;;;;;4997581;28;20492;-74
2023/08/25 04:13:52;;;;;;;12.75;11.55;;;20.30;99.90;;;;;;4984166;28;20404;-72
2023/08/25 04:16:18;;;;;;;11.52;10.43;;;20.30;99.90;;;;;;4991450;28;20041;-73
2023/08/25 04:18:46;;;;;;;10.80;9.65;;;20.40;99.90;;;;;;4976186;28;20022;-72
2023/08/25 04:21:12;;;;;;;11.93;10.82;;;20.40;99.90;;;;;;4991413;28;20033;-74
2023/08/25 04:23:39;;;;;;;11.73;10.75;;;20.40;99.90;;;;;;4954854;28;20473;-71
2023/08/25 04:26:05;;;;;;;14.30;13.00;;;20.40;99.90;;;;;;4970924;28;20042;-72
2023/08/25 04:28:32;;;;;;;12.90;11.60;;;20.40;99.90;;;;;;4972478;28;20034;-72
2023/08/25 04:30:58;;;;;;;14.65;13.20;;;20.40;99.90;;;;;;4979509;28;20316;-72
2023/08/25 04:33:32;;;;;;;13.85;12.50;;;20.40;99.90;;;;;;4984484;28;20473;-74
2023/08/25 04:36:00;;;;;;;15.23;13.82;;;20.40;99.90;;;;;;4992495;28;20046;-72
2023/08/25 04:38:26;;;;;;;13.70;12.45;;;20.40;99.90;;;;;;4972865;28;20269;-72
2023/08/25 04:40:53;;;;;;;12.77;11.57;;;20.40;99.90;;;;;;4990908;28;21055;-73
2023/08/25 04:43:21;;;;;;;14.38;13.05;;;20.40;99.90;;;;;;4973078;28;20061;-73
2023/08/25 04:45:48;;;;;;;13.60;12.30;;;20.40;99.90;;;;;;4970700;28;20041;-74
2023/08/25 04:48:15;;;;;;;15.10;13.65;;;20.40;99.90;;;;;;4970734;28;20026;-73
2023/08/25 04:50:41;;;;;;;13.32;12.02;;;20.40;99.90;;;;;;4979418;28;20050;-73
2023/08/25 04:53:08;;;;;;;13.70;12.40;;;20.50;99.90;;;;;;4967450;28;20512;-72
2023/08/25 04:55:34;;;;;;;15.52;14.15;;;20.40;99.90;;;;;;4980747;28;20030;-72
2023/08/25 04:58:01;;;;;;;14.65;13.15;;;20.50;99.90;;;;;;4988353;28;20926;-72
2023/08/25 05:00:29;;;;;;;13.65;12.43;;;20.40;99.90;;;;;;4971420;28;20038;-73
2023/08/25 05:02:55;;;;;;;13.05;11.90;;;20.50;99.90;;;;;;4987473;28;20570;-75
2023/08/25 05:05:22;;;;;;;14.43;13.13;;;20.50;99.90;;;;;;4957340;28;20042;-73
2023/08/25 05:07:52;;;;;;;14.02;12.57;;;20.50;99.90;;;;;;4960858;28;21169;-74
2023/08/25 05:10:19;;;;;;;14.32;12.98;;;20.50;99.90;;;;;;4982375;28;20043;-75
2023/08/25 05:12:45;;;;;;;13.25;12.05;;;20.50;99.90;;;;;;4999440;28;20034;-75
2023/08/25 05:15:12;;;;;;;11.80;10.73;;;20.50;99.90;;;;;;4978778;28;20038;-73
2023/08/25 05:17:39;;;;;;;14.90;13.40;;;20.50;99.90;;;;;;4968926;28;20053;-73
2023/08/25 05:20:08;;;;;;;14.00;12.75;;;20.60;99.90;;;;;;4975366;28;20044;-76
2023/08/25 05:22:35;;;;;;;14.27;12.88;;;20.60;99.90;;;;;;4958756;28;20041;-74
2023/08/25 05:25:03;;;;;;;14.13;12.63;;;20.60;99.90;;;;;;4970760;28;20042;-73
2023/08/25 05:27:31;;;;;;;13.65;12.45;;;20.60;99.90;;;;;;4974845;28;21050;-74
2023/08/25 05:29:58;;;;;;;12.93;11.73;;;20.60;99.90;;;;;;4992222;28;20034;-75
2023/08/25 05:32:25;;;;;;;13.68;12.38;;;20.60;99.90;;;;;;4983375;28;20481;-75
2023/08/25 05:35:20;;;;;;;13.60;12.25;;;20.60;99.90;;;;;;4964728;28;20022;-75
2023/08/25 05:37:49;;;;;;;13.52;12.25;;;20.60;99.90;;;;;;4975940;28;20026;-72
2023/08/25 05:40:16;;;;;;;13.05;11.82;;;20.70;99.90;;;;;;4953458;28;20029;-74
2023/08/25 05:42:45;;;;;;;15.13;13.55;;;20.70;99.90;;;;;;4973382;28;20049;-73
2023/08/25 05:45:11;;;;;;;13.25;12.02;;;20.70;99.90;;;;;;4971232;28;20026;-73
2023/08/25 05:47:37;;;;;;;16.02;14.52;;;20.70;99.90;;;;;;4972646;28;20044;-75
2023/08/25 05:50:04;;;;;;;13.15;11.95;;;20.80;99.90;;;;;;4974707;28;20045;-74
2023/08/25 05:52:31;;;;;;;12.80;11.60;;;20.80;99.90;;;;;;4951569;28;20052;-76
2023/08/25 05:54:57;;;;;;;13.63;12.32;;;20.80;99.90;;;;;;4981346;28;20570;-73
2023/08/25 05:57:24;;;;;;;13.70;12.35;;;20.80;99.90;;;;;;4976672;28;20049;-73
2023/08/25 05:59:51;;;;;;;16.30;14.70;;;20.90;99.90;;;;;;4942378;28;20033;-73
2023/08/25 06:02:17;;;;;;;15.80;13.95;;;20.90;99.90;;;;;;4971751;28;20053;-75
2023/08/25 06:04:44;;;;;;;14.68;13.27;;;20.90;99.90;;;;;;4970635;28;20042;-73
2023/08/25 06:07:11;;;;;;;15.20;13.70;;;21.00;99.90;;;;;;4971028;28;20053;-73
2023/08/25 06:09:38;;;;;;;15.80;14.30;;;21.00;99.90;;;;;;4970556;28;20277;-74
2023/08/25 06:12:05;;;;;;;17.60;15.90;;;21.10;99.90;;;;;;4980603;28;20671;-75
2023/08/25 06:14:31;;;;;;;17.20;15.52;;;21.10;99.90;;;;;;4978675;28;20030;-76
2023/08/25 06:17:02;;;;;;;19.35;17.42;;;21.10;99.90;;;;;;4961485;28;20033;-76
2023/08/25 06:19:30;;;;;;;18.10;16.23;;;21.10;99.90;;;;;;4968619;28;20026;-74
2023/08/25 06:21:57;;;;;;;15.75;14.10;;;21.20;99.90;;;;;;4970649;28;20034;-73
2023/08/25 06:24:25;;;;;;;18.70;16.75;;;21.20;99.90;;;;;;4966938;28;20034;-73
2023/08/25 06:26:52;;;;;;;17.15;15.57;;;21.20;99.90;;;;;;4948543;28;20038;-73
2023/08/25 06:29:18;;;;;;;19.17;17.30;;;21.30;99.90;;;;;;4967758;28;20046;-75
2023/08/25 06:31:45;;;;;;;17.80;16.20;;;21.30;99.90;;;;;;4981191;28;20036;-75
2023/08/25 06:34:12;;;;;;;17.10;15.50;;;21.30;99.90;;;;;;4978453;28;20041;-75
2023/08/25 06:36:38;;;;;;;17.88;16.17;;;21.30;99.90;;;;;;4974371;28;20037;-75
2023/08/25 06:39:05;;;;;;;21.00;18.92;;;21.30;99.90;;;;;;4936926;28;20313;-72
2023/08/25 06:41:31;;;;;;;21.02;18.95;;;21.30;99.90;;;;;;4965573;28;20049;-74
2023/08/25 06:44:07;;;;;;;16.00;14.30;;;21.30;99.90;;;;;;4957625;28;20041;-75
2023/08/25 06:46:34;;;;;;;16.90;15.30;;;21.20;99.90;;;;;;4967375;28;20473;-76
2023/08/25 06:49:00;;;;;;;15.88;14.00;;;21.20;99.90;;;;;;4985006;28;20040;-74
2023/08/25 06:51:26;;;;;;;17.77;16.00;;;21.20;99.90;;;;;;4979231;28;20029;-74
2023/08/25 06:53:53;;;;;;;19.42;16.85;;;21.20;99.90;;;;;;4979178;28;20046;-75
2023/08/25 06:56:19;;;;;;;15.85;14.45;;;21.30;99.90;;;;;;4969053;28;20173;-74
2023/08/25 06:58:46;;;;;;;17.70;16.00;;;21.20;99.90;;;;;;4972351;28;20313;-75
2023/08/25 07:01:12;;;;;;;15.70;14.25;;;21.20;99.90;;;;;;4968323;28;20420;-77
2023/08/25 07:03:39;;;;;;;16.65;15.05;;;21.20;99.90;;;;;;4952978;28;20060;-76
2023/08/25 07:06:05;;;;;;;18.90;17.10;;;21.20;99.90;;;;;;4986252;28;20045;-76
2023/08/25 07:08:31;;;;;;;18.98;17.08;;;21.20;99.90;;;;;;4970584;28;20392;-77
2023/08/25 07:10:58;;;;;;;19.65;17.60;;;21.20;99.90;;;;;;4981822;28;20052;-75
2023/08/25 07:13:24;;;;;;;14.80;13.50;;;21.20;99.90;;;;;;4979159;28;20525;-73
2023/08/25 07:15:51;;;;;;;15.43;13.98;;;21.20;99.90;;;;;;4979057;28;20041;-73
2023/08/25 07:18:17;;;;;;;16.95;15.15;;;21.20;99.90;;;;;;4974568;28;20412;-75
2023/08/25 07:20:44;;;;;;;20.60;18.20;;;21.20;99.90;;;;;;4973943;28;20485;-74
2023/08/25 07:23:10;;;;;;;17.02;15.43;;;21.20;99.90;;;;;;4973437;28;20068;-79
2023/08/25 07:25:38;;;;;;;14.68;13.27;;;21.20;99.90;;;;;;4971003;28;20056;-76
2023/08/25 07:28:05;;;;;;;15.93;13.38;;;21.20;99.90;;;;;;4974341;28;20049;-78
2023/08/25 07:30:31;;;;;;;19.15;17.25;;;21.20;99.90;;;;;;4997172;28;20041;-78
2023/08/25 07:32:58;;;;;;;17.90;16.10;;;21.10;99.90;;;;;;4984922;28;20026;-73
2023/08/25 07:35:24;;;;;;;17.80;16.00;;;21.10;99.90;;;;;;4994993;28;20555;-75
2023/08/25 07:37:52;;;;;;;20.08;17.20;;;21.10;99.90;;;;;;4957458;28;20046;-75
2023/08/25 07:40:19;;;;;;;19.65;17.77;;;21.20;99.90;;;;;;4988896;28;20038;-73
2023/08/25 07:42:45;;;;;;;19.88;17.98;;;21.10;99.90;;;;;;4989307;28;20413;-75
2023/08/25 07:45:12;;;;;;;20.65;17.65;;;21.20;99.90;;;;;;4988723;28;20045;-74
2023/08/25 07:47:38;;;;;;;18.17;16.40;;;21.20;99.90;;;;;;4975478;28;20117;-75
2023/08/25 07:50:06;;;;;;;25.42;22.92;;;21.20;99.90;;;;;;4973381;28;20033;-73
2023/08/25 07:52:32;;;;;;;21.25;19.25;;;21.20;99.90;;;;;;4962181;28;20038;-73
2023/08/25 07:54:59;;;;;;;22.25;19.95;;;21.20;99.90;;;;;;4980453;28;20385;-76
2023/08/25 07:57:25;;;;;;;20.30;18.30;;;21.20;99.90;;;;;;4956204;28;20034;-75
2023/08/25 07:59:52;;;;;;;26.10;23.50;;;21.20;99.90;;;;;;4973653;28;20033;-75
2023/08/25 08:02:18;;;;;;;26.15;23.30;;;21.20;99.90;;;;;;4979724;28;20029;-75
2023/08/25 08:04:44;;;;;;;29.58;26.63;;;21.20;99.90;;;;;;4989669;28;20045;-79
2023/08/25 08:07:11;;;;;;;25.27;22.75;;;21.20;99.90;;;;;;4958612;28;20052;-77
2023/08/25 08:09:37;;;;;;;22.90;20.70;;;21.20;99.90;;;;;;4991160;28;20049;-77
2023/08/25 08:12:04;;;;;;;20.70;18.55;;;21.20;99.90;;;;;;4983395;28;20366;-77
2023/08/25 08:14:35;;;;;;;22.25;20.15;;;21.20;99.90;;;;;;4985856;28;20041;-75
2023/08/25 08:17:03;;;;;;;23.35;21.13;;;21.20;99.90;;;;;;4971959;28;20060;-77
2023/08/25 08:19:29;;;;;;;19.63;17.55;;;21.20;99.90;;;;;;4987423;28;21714;-78
2023/08/25 08:21:55;;;;;;;20.77;18.65;;;21.10;99.90;;;;;;4974138;28;20030;-78
2023/08/25 08:24:22;;;;;;;19.60;17.75;;;21.10;99.90;;;;;;4973731;28;20042;-78
2023/08/25 08:26:49;;;;;;;16.67;15.02;;;21.10;99.90;;;;;;4990497;28;20829;-80
2023/08/25 08:29:15;;;;;;;13.25;12.05;;;21.00;99.90;;;;;;4955953;28;20033;-80
2023/08/25 08:31:42;;;;;;;16.27;13.27;;;21.00;99.90;;;;;;4983742;28;20042;-80
2023/08/25 08:34:08;;;;;;;12.57;11.38;;;20.90;99.90;;;;;;4986256;28;20441;-77
2023/08/25 08:36:35;;;;;;;17.17;13.60;;;20.80;99.90;;;;;;4993657;28;20035;-74
2023/08/25 08:39:03;;;;;;;15.73;14.27;;;20.80;99.90;;;;;;4972195;28;20036;-75
2023/08/25 08:41:32;;;;;;;15.57;14.07;;;20.70;99.90;;;;;;4958703;28;20037;-74
2023/08/25 08:44:01;;;;;;;19.08;15.27;;;20.70;99.90;;;;;;4956525;28;20034;-74
2023/08/25 08:46:30;;;;;;;20.45;18.35;;;20.80;99.90;;;;;;4970312;28;22542;-75
2023/08/25 08:48:57;;;;;;;18.65;16.85;;;20.80;99.90;;;;;;4959516;28;20037;-74
2023/08/25 08:51:25;;;;;;;19.42;17.55;;;20.80;99.90;;;;;;4967876;28;22129;-75
2023/08/25 08:53:52;;;;;;;17.05;15.30;;;20.80;99.90;;;;;;4997298;28;20060;-76
2023/08/25 08:56:19;;;;;;;25.85;23.25;;;20.80;99.90;;;;;;4992067;28;20034;-74
2023/08/25 08:58:45;;;;;;;32.17;28.67;;;20.70;99.90;;;;;;4955057;28;20855;-76
2023/08/25 09:01:12;;;;;;;33.90;30.38;;;20.60;99.90;;;;;;4971223;28;20037;-75
2023/08/25 09:03:39;;;;;;;23.88;21.48;;;20.50;99.90;;;;;;4973897;28;20324;-77
2023/08/25 09:06:06;;;;;;;36.90;32.97;;;20.50;99.90;;;;;;4969631;28;20042;-75
2023/08/25 09:08:33;;;;;;;34.92;31.08;;;20.40;99.90;;;;;;4956738;28;20038;-75
2023/08/25 09:11:02;;;;;;;29.88;26.63;;;20.30;99.90;;;;;;4992601;28;20342;-76
2023/08/25 09:13:33;;;;;;;35.00;31.23;;;20.30;99.90;;;;;;4996722;28;21074;-75
2023/08/25 09:16:09;;;;;;;27.40;24.50;;;20.30;99.90;;;;;;4964906;28;20057;-76
2023/08/25 09:18:36;;;;;;;38.28;30.45;;;20.20;99.90;;;;;;4992825;28;20033;-76
2023/08/25 09:21:18;;;;;;;24.13;21.63;;;20.30;99.90;;;;;;4974109;28;20038;-75
2023/08/25 09:23:56;;;;;;;23.33;20.88;;;20.20;99.90;;;;;;4991036;28;20040;-75
2023/08/25 09:26:23;;;;;;;22.98;20.63;;;20.30;99.90;;;;;;4973869;28;23552;-76
2023/08/25 09:28:55;;;;;;;32.90;28.85;;;20.30;99.90;;;;;;4974589;28;20373;-76
2023/08/25 09:31:23;;;;;;;28.33;25.33;;;20.30;99.90;;;;;;4984521;28;20017;-76
2023/08/25 09:33:52;;;;;;;23.67;21.27;;;20.30;99.90;;;;;;4983900;28;21259;-76
2023/08/25 09:36:19;;;;;;;28.23;23.63;;;20.30;99.90;;;;;;4979438;28;20037;-76
2023/08/25 09:38:48;;;;;;;25.52;22.85;;;20.40;99.90;;;;;;4973299;28;20045;-76
2023/08/25 09:41:25;;;;;;;19.80;17.77;;;20.40;99.90;;;;;;4988747;28;20377;-76
2023/08/25 09:44:00;;;;;;;18.63;16.63;;;20.30;99.90;;;;;;4972723;28;20018;-77
2023/08/25 09:46:33;;;;;;;19.63;17.60;;;20.30;99.90;;;;;;4982346;28;20365;-76
2023/08/25 09:49:08;;;;;;;17.75;15.85;;;20.30;99.90;;;;;;4977256;28;20309;-75
2023/08/25 09:51:43;;;;;;;17.45;15.18;;;20.20;99.90;;;;;;4947617;28;20030;-76
2023/08/25 09:54:10;;;;;;;14.75;13.25;;;20.30;99.90;;;;;;4978024;28;20038;-75
2023/08/25 09:56:38;;;;;;;14.90;13.43;;;20.30;99.90;;;;;;4974224;28;20038;-75
2023/08/25 09:59:05;;;;;;;14.88;13.40;;;20.30;99.90;;;;;;4953453;28;20022;-76
2023/08/25 10:01:33;;;;;;;14.70;13.35;;;20.30;99.90;;;;;;4983059;28;20038;-74
2023/08/25 10:04:03;;;;;;;19.23;17.38;;;20.30;99.90;;;;;;4965290;28;20037;-75
2023/08/25 10:06:31;;;;;;;15.20;13.80;;;20.40;99.90;;;;;;4954755;28;20500;-75
2023/08/25 10:09:01;;;;;;;15.88;14.43;;;20.30;99.90;;;;;;4960525;28;20034;-74
2023/08/25 10:11:35;;;;;;;11.35;10.25;;;20.40;99.90;;;;;;4977379;28;20022;-73
2023/08/25 10:14:05;;;;;;;11.52;10.13;;;20.40;99.90;;;;;;4962539;28;20037;-74
2023/08/25 10:16:37;;;;;;;15.40;13.93;;;20.40;99.90;;;;;;4974716;28;20950;-73
2023/08/25 10:19:05;;;;;;;10.95;9.95;;;20.40;99.90;;;;;;4969980;28;20033;-73
2023/08/25 10:21:33;;;;;;;10.63;9.73;;;20.40;99.90;;;;;;4974131;28;20042;-75
2023/08/25 10:24:02;;;;;;;11.45;10.45;;;20.30;99.90;;;;;;4988650;28;20030;-75
2023/08/25 10:26:30;;;;;;;9.43;8.52;;;20.30;99.90;;;;;;4972988;28;20606;-74
2023/08/25 10:28:57;;;;;;;9.20;8.35;;;20.30;99.90;;;;;;4952719;28;20029;-75
2023/08/25 10:31:25;;;;;;;12.50;11.25;;;20.30;99.90;;;;;;4967029;28;20030;-74
2023/08/25 10:33:52;;;;;;;10.45;9.55;;;20.50;99.90;;;;;;4968461;28;20037;-77
2023/08/25 10:36:21;;;;;;;12.68;11.57;;;20.90;99.90;;;;;;4984376;28;20038;-75
2023/08/25 10:39:07;;;;;;;10.93;10.02;;;21.20;99.90;;;;;;4951691;28;20037;-74
2023/08/25 10:41:42;;;;;;;10.82;9.93;;;21.50;99.90;;;;;;4969445;28;20034;-75
2023/08/25 10:44:18;;;;;;;9.65;8.85;;;21.90;99.90;;;;;;4985235;28;20030;-74
2023/08/25 10:46:45;;;;;;;10.32;9.50;;;22.30;99.90;;;;;;4953494;28;20026;-75
2023/08/25 10:49:12;;;;;;;8.68;7.97;;;22.50;99.90;;;;;;4988356;28;20675;-74
2023/08/25 10:51:39;;;;;;;10.10;9.10;;;22.70;99.90;;;;;;4975662;28;20469;-75
2023/08/25 10:54:16;;;;;;;9.32;8.43;;;22.80;99.90;;;;;;4992626;28;20026;-74
2023/08/25 10:56:42;;;;;;;8.77;8.00;;;23.00;99.90;;;;;;4969766;28;20054;-75
2023/08/25 10:59:10;;;;;;;7.80;6.85;;;23.20;99.90;;;;;;4971745;28;20040;-75
2023/08/25 11:01:37;;;;;;;7.47;6.85;;;23.80;99.90;;;;;;4967312;28;20026;-75
2023/08/25 11:04:13;;;;;;;5.47;4.97;;;23.90;99.90;;;;;;4968049;28;20045;-75
2023/08/25 11:06:47;;;;;;;3.53;3.22;;;23.90;99.90;;;;;;4952874;28;20049;-75
2023/08/25 11:09:23;;;;;;;5.50;3.05;;;24.00;99.90;;;;;;4956449;28;20030;-75
2023/08/25 11:12:08;;;;;;;3.60;3.30;;;24.00;99.90;;;;;;4979833;28;20037;-75
2023/08/25 11:14:42;;;;;;;3.85;3.30;;;23.90;99.90;;;;;;4978460;28;20029;-73
2023/08/25 11:17:10;;;;;;;10.23;9.20;;;23.80;99.90;;;;;;4968796;28;21289;-75
2023/08/25 11:19:39;;;;;;;9.40;8.48;;;23.60;99.90;;;;;;4966105;28;20033;-75
2023/08/25 11:22:10;;;;;;;7.80;7.07;;;23.40;99.90;;;;;;4970332;28;20485;-74
2023/08/25 11:24:36;;;;;;;6.22;5.15;;;23.20;99.90;;;;;;4968482;28;20053;-75
2023/08/25 11:27:09;;;;;;;5.03;4.60;;;23.10;99.90;;;;;;4985845;28;20049;-84
2023/08/25 11:29:36;;;;;;;6.13;5.63;;;23.00;99.90;;;;;;4966123;28;20041;-75
2023/08/25 11:32:06;;;;;;;7.45;6.75;;;22.80;99.90;;;;;;4959322;28;20662;-75
2023/08/25 11:34:34;;;;;;;4.40;4.05;;;22.60;99.90;;;;;;4977230;28;20033;-74
2023/08/25 11:37:00;;;;;;;7.07;5.47;;;22.50;99.90;;;;;;4976610;28;20049;-75
2023/08/25 11:39:27;;;;;;;5.38;4.97;;;22.50;99.90;;;;;;4958096;28;20027;-75
2023/08/25 11:41:54;;;;;;;7.00;6.43;;;22.60;99.90;;;;;;4987988;28;20046;-76
2023/08/25 11:44:23;;;;;;;8.00;7.30;;;22.70;99.90;;;;;;4948221;28;20046;-74
2023/08/25 11:46:52;;;;;;;7.38;6.75;;;22.80;99.90;;;;;;4964059;28;20042;-75
2023/08/25 11:49:20;;;;;;;6.10;5.60;;;22.90;99.90;;;;;;4983173;28;20038;-75
2023/08/25 11:51:48;;;;;;;6.00;5.50;;;22.90;99.90;;;;;;4983248;28;20030;-76
2023/08/25 11:54:16;;;;;;;5.80;5.30;;;22.90;99.90;;;;;;4967792;28;20046;-76
2023/08/25 11:56:51;;;;;;;7.38;6.70;;;22.80;99.90;;;;;;4988221;28;20068;-77
2023/08/25 11:59:19;;;;;;;7.60;6.47;;;22.70;99.90;;;;;;4959622;28;20034;-76
2023/08/25 12:01:49;;;;;;;7.65;7.03;;;22.70;99.90;;;;;;4972915;28;20516;-74
2023/08/25 12:04:23;;;;;;;5.93;5.00;;;22.60;99.90;;;;;;4980247;28;20071;-76
2023/08/25 12:06:51;;;;;;;9.98;9.07;;;22.50;99.90;;;;;;4961085;28;22093;-74
2023/08/25 12:09:21;;;;;;;7.15;6.18;;;22.40;99.90;;;;;;4964512;28;20036;-76
2023/08/25 12:11:47;;;;;;;7.68;6.97;;;22.30;99.90;;;;;;4966394;28;20464;-75
2023/08/25 12:14:31;;;;;;;7.18;6.47;;;22.20;99.90;;;;;;4942598;28;20049;-74
2023/08/25 12:16:58;;;;;;;12.55;11.45;;;22.20;99.90;;;;;;4964419;28;21059;-74
2023/08/25 12:19:26;;;;;;;6.97;6.38;;;22.10;99.90;;;;;;4985716;28;20041;-75
2023/08/25 12:21:54;;;;;;;7.65;7.05;;;22.00;99.90;;;;;;4979164;28;20513;-75
2023/08/25 12:24:20;;;;;;;8.65;7.95;;;21.90;99.90;;;;;;4958308;28;20044;-76
2023/08/25 12:26:48;;;;;;;9.93;8.95;;;21.90;99.90;;;;;;4974597;28;20072;-75
2023/08/25 12:29:15;;;;;;;10.00;9.00;;;21.90;99.90;;;;;;4984488;28;20493;-75
2023/08/25 12:31:41;;;;;;;14.25;13.00;;;22.00;99.90;;;;;;4964467;28;20041;-76
2023/08/25 12:34:08;;;;;;;9.85;9.05;;;22.00;99.90;;;;;;4966568;28;20033;-77
2023/08/25 12:36:35;;;;;;;11.77;10.70;;;22.10;99.90;;;;;;4977959;28;20030;-76
2023/08/25 12:39:03;;;;;;;9.57;8.77;;;22.10;99.90;;;;;;4963747;28;20041;-77